sensor_id;sensor_type;location;lat;lon;timestamp;pressure;altitude;pressure_sealevel;temperature;humidity
9935;BME280;5006;41.828;23.478;2024-02-23T00:00:18;90197.28;;;13.19;51.22
9935;BME280;5006;41.828;23.478;2024-02-23T00:01:24;90196.44;;;12.59;52.35
9935;BME280;5006;41.828;23.478;2024-02-23T00:02:30;90198.34;;;13.25;51.52
9935;BME280;5006;41.828;23.478;2024-02-23T00:03:36;90193.38;;;13.50;52.20
9935;BME280;5006;41.828;23.478;2024-02-23T00:04:42;90180.94;;;13.59;51.02
9935;BME280;5006;41.828;23.478;2024-02-23T00:05:49;90188.91;;;13.40;51.27
9935;BME280;5006;41.828;23.478;2024-02-23T00:06:54;90184.53;;;13.23;51.18
9935;BME280;5006;41.828;23.478;2024-02-23T00:08:00;90179.56;;;12.88;52.35
9935;BME280;5006;41.828;23.478;2024-02-23T00:09:05;90168.44;;;12.86;52.74
9935;BME280;5006;41.828;23.478;2024-02-23T00:10:10;90172.41;;;12.41;53.96
9935;BME280;5006;41.828;23.478;2024-02-23T00:11:18;90176.22;;;12.44;54.13
9935;BME280;5006;41.828;23.478;2024-02-23T00:12:23;90184.06;;;12.28;54.22
9935;BME280;5006;41.828;23.478;2024-02-23T00:13:28;90185.47;;;12.02;54.32
9935;BME280;5006;41.828;23.478;2024-02-23T00:14:34;90183.94;;;12.38;54.00
9935;BME280;5006;41.828;23.478;2024-02-23T00:15:42;90179.00;;;13.03;52.88
9935;BME280;5006;41.828;23.478;2024-02-23T00:16:49;90194.84;;;12.24;53.50
9935;BME280;5006;41.828;23.478;2024-02-23T00:17:55;90185.19;;;12.30;53.99
9935;BME280;5006;41.828;23.478;2024-02-23T00:19:00;90185.38;;;12.50;53.39
9935;BME280;5006;41.828;23.478;2024-02-23T00:20:09;90182.03;;;13.09;52.50
9935;BME280;5006;41.828;23.478;2024-02-23T00:21:16;90191.94;;;12.82;52.66
9935;BME280;5006;41.828;23.478;2024-02-23T00:22:21;90179.16;;;12.89;52.45
9935;BME280;5006;41.828;23.478;2024-02-23T00:23:27;90187.53;;;12.65;52.58
9935;BME280;5006;41.828;23.478;2024-02-23T00:24:34;90184.22;;;13.70;51.78
9935;BME280;5006;41.828;23.478;2024-02-23T00:25:41;90175.50;;;13.63;51.41
9935;BME280;5006;41.828;23.478;2024-02-23T00:26:48;90183.34;;;13.24;51.43
9935;BME280;5006;41.828;23.478;2024-02-23T00:27:55;90181.03;;;13.79;51.91
9935;BME280;5006;41.828;23.478;2024-02-23T00:29:02;90181.94;;;13.16;52.21
9935;BME280;5006;41.828;23.478;2024-02-23T00:30:09;90190.59;;;13.00;52.53
9935;BME280;5006;41.828;23.478;2024-02-23T00:31:17;90190.53;;;12.71;53.04
9935;BME280;5006;41.828;23.478;2024-02-23T00:32:24;90180.50;;;12.41;53.25
9935;BME280;5006;41.828;23.478;2024-02-23T00:33:30;90181.81;;;12.97;53.13
9935;BME280;5006;41.828;23.478;2024-02-23T00:34:37;90181.69;;;14.09;51.14
9935;BME280;5006;41.828;23.478;2024-02-23T00:35:42;90175.75;;;13.72;50.87
9935;BME280;5006;41.828;23.478;2024-02-23T00:36:48;90178.63;;;13.61;50.73
9935;BME280;5006;41.828;23.478;2024-02-23T00:37:54;90174.31;;;13.64;51.27
9935;BME280;5006;41.828;23.478;2024-02-23T00:39:00;90181.09;;;14.25;50.06
9935;BME280;5006;41.828;23.478;2024-02-23T00:40:07;90179.53;;;14.01;50.60
9935;BME280;5006;41.828;23.478;2024-02-23T00:41:15;90175.25;;;13.27;51.75
9935;BME280;5006;41.828;23.478;2024-02-23T00:42:20;90172.78;;;12.77;51.95
9935;BME280;5006;41.828;23.478;2024-02-23T00:43:27;90176.97;;;12.81;53.13
9935;BME280;5006;41.828;23.478;2024-02-23T00:44:34;90173.00;;;13.75;50.75
9935;BME280;5006;41.828;23.478;2024-02-23T00:45:40;90176.47;;;13.99;50.55
9935;BME280;5006;41.828;23.478;2024-02-23T00:46:47;90168.88;;;14.17;49.75
9935;BME280;5006;41.828;23.478;2024-02-23T00:47:54;90173.88;;;14.18;49.62
9935;BME280;5006;41.828;23.478;2024-02-23T00:49:00;90171.09;;;13.49;50.64
9935;BME280;5006;41.828;23.478;2024-02-23T00:50:07;90169.06;;;13.57;50.88
9935;BME280;5006;41.828;23.478;2024-02-23T00:51:13;90173.44;;;13.47;51.20
9935;BME280;5006;41.828;23.478;2024-02-23T00:52:19;90161.94;;;13.43;51.02
9935;BME280;5006;41.828;23.478;2024-02-23T00:53:25;90158.97;;;13.87;50.96
9935;BME280;5006;41.828;23.478;2024-02-23T00:54:32;90161.38;;;14.05;50.24
9935;BME280;5006;41.828;23.478;2024-02-23T00:55:37;90153.63;;;13.84;50.62
9935;BME280;5006;41.828;23.478;2024-02-23T00:56:43;90155.78;;;13.43;52.13
9935;BME280;5006;41.828;23.478;2024-02-23T00:57:49;90160.53;;;13.35;51.29
9935;BME280;5006;41.828;23.478;2024-02-23T00:58:55;90158.97;;;13.34;51.33
9935;BME280;5006;41.828;23.478;2024-02-23T01:00:01;90156.75;;;13.79;51.49
9935;BME280;5006;41.828;23.478;2024-02-23T01:01:07;90160.25;;;13.53;51.79
9935;BME280;5006;41.828;23.478;2024-02-23T01:02:15;90162.63;;;13.21;52.16
9935;BME280;5006;41.828;23.478;2024-02-23T01:03:21;90162.13;;;13.29;51.85
9935;BME280;5006;41.828;23.478;2024-02-23T01:04:28;90151.72;;;13.58;51.69
9935;BME280;5006;41.828;23.478;2024-02-23T01:05:34;90154.25;;;13.68;51.48
9935;BME280;5006;41.828;23.478;2024-02-23T01:06:40;90155.78;;;13.43;51.74
9935;BME280;5006;41.828;23.478;2024-02-23T01:07:46;90154.97;;;12.86;52.57
9935;BME280;5006;41.828;23.478;2024-02-23T01:08:53;90156.84;;;13.22;52.96
9935;BME280;5006;41.828;23.478;2024-02-23T01:09:58;90147.38;;;13.11;52.65
9935;BME280;5006;41.828;23.478;2024-02-23T01:11:04;90147.88;;;13.02;52.80
9935;BME280;5006;41.828;23.478;2024-02-23T01:12:09;90143.13;;;13.40;52.25
9935;BME280;5006;41.828;23.478;2024-02-23T01:13:16;90147.47;;;12.71;53.59
9935;BME280;5006;41.828;23.478;2024-02-23T01:14:22;90155.13;;;12.02;54.92
9935;BME280;5006;41.828;23.478;2024-02-23T01:15:28;90146.00;;;12.33;55.32
9935;BME280;5006;41.828;23.478;2024-02-23T01:16:32;90150.28;;;12.60;54.32
9935;BME280;5006;41.828;23.478;2024-02-23T01:17:40;90146.19;;;12.82;53.73
9935;BME280;5006;41.828;23.478;2024-02-23T01:18:47;90152.59;;;13.51;52.92
9935;BME280;5006;41.828;23.478;2024-02-23T01:19:54;90149.50;;;13.76;52.31
9935;BME280;5006;41.828;23.478;2024-02-23T01:21:00;90140.19;;;14.03;51.63
9935;BME280;5006;41.828;23.478;2024-02-23T01:22:08;90141.91;;;13.44;52.61
9935;BME280;5006;41.828;23.478;2024-02-23T01:23:13;90141.28;;;13.33;52.66
9935;BME280;5006;41.828;23.478;2024-02-23T01:24:19;90149.69;;;13.39;53.25
9935;BME280;5006;41.828;23.478;2024-02-23T01:25:24;90142.72;;;13.41;52.66
9935;BME280;5006;41.828;23.478;2024-02-23T01:26:30;90145.69;;;13.50;52.54
9935;BME280;5006;41.828;23.478;2024-02-23T01:27:35;90147.44;;;13.60;51.97
9935;BME280;5006;41.828;23.478;2024-02-23T01:28:42;90136.50;;;13.44;51.92
9935;BME280;5006;41.828;23.478;2024-02-23T01:29:49;90143.31;;;13.26;52.73
9935;BME280;5006;41.828;23.478;2024-02-23T01:30:54;90142.88;;;13.31;52.18
9935;BME280;5006;41.828;23.478;2024-02-23T01:32:00;90144.34;;;13.62;52.16
9935;BME280;5006;41.828;23.478;2024-02-23T01:33:07;90142.47;;;13.59;52.66
9935;BME280;5006;41.828;23.478;2024-02-23T01:34:13;90145.06;;;13.89;52.30
9935;BME280;5006;41.828;23.478;2024-02-23T01:35:20;90144.41;;;13.81;51.19
9935;BME280;5006;41.828;23.478;2024-02-23T01:36:25;90139.84;;;14.01;51.02
9935;BME280;5006;41.828;23.478;2024-02-23T01:37:32;90143.16;;;13.63;51.91
9935;BME280;5006;41.828;23.478;2024-02-23T01:38:38;90137.78;;;13.63;51.76
9935;BME280;5006;41.828;23.478;2024-02-23T01:39:45;90147.06;;;14.08;51.00
9935;BME280;5006;41.828;23.478;2024-02-23T01:40:50;90144.66;;;13.90;51.15
9935;BME280;5006;41.828;23.478;2024-02-23T01:41:57;90144.38;;;13.85;51.58
9935;BME280;5006;41.828;23.478;2024-02-23T01:43:04;90143.97;;;13.86;51.76
9935;BME280;5006;41.828;23.478;2024-02-23T01:44:11;90143.41;;;13.45;52.68
9935;BME280;5006;41.828;23.478;2024-02-23T01:45:16;90140.03;;;13.68;53.27
9935;BME280;5006;41.828;23.478;2024-02-23T01:46:23;90141.69;;;13.58;52.61
9935;BME280;5006;41.828;23.478;2024-02-23T01:47:28;90142.19;;;13.50;52.87
9935;BME280;5006;41.828;23.478;2024-02-23T01:48:37;90132.13;;;14.26;52.01
9935;BME280;5006;41.828;23.478;2024-02-23T01:49:44;90140.91;;;14.30;51.53
9935;BME280;5006;41.828;23.478;2024-02-23T01:50:52;90136.28;;;13.35;51.71
9935;BME280;5006;41.828;23.478;2024-02-23T01:51:59;90135.81;;;13.67;51.90
9935;BME280;5006;41.828;23.478;2024-02-23T01:53:05;90134.75;;;13.84;51.53
9935;BME280;5006;41.828;23.478;2024-02-23T01:54:11;90135.19;;;13.56;51.89
9935;BME280;5006;41.828;23.478;2024-02-23T01:55:18;90133.47;;;13.42;52.73
9935;BME280;5006;41.828;23.478;2024-02-23T01:56:23;90128.66;;;13.04;53.41
9935;BME280;5006;41.828;23.478;2024-02-23T01:57:31;90129.81;;;13.29;52.89
9935;BME280;5006;41.828;23.478;2024-02-23T01:58:37;90132.81;;;13.61;52.90
9935;BME280;5006;41.828;23.478;2024-02-23T01:59:43;90130.47;;;13.63;52.67
9935;BME280;5006;41.828;23.478;2024-02-23T02:00:48;90129.81;;;13.79;52.04
9935;BME280;5006;41.828;23.478;2024-02-23T02:01:55;90133.53;;;13.12;53.03
9935;BME280;5006;41.828;23.478;2024-02-23T02:03:01;90125.03;;;13.67;53.29
9935;BME280;5006;41.828;23.478;2024-02-23T02:04:08;90128.28;;;13.78;52.50
9935;BME280;5006;41.828;23.478;2024-02-23T02:05:14;90125.72;;;13.71;52.31
9935;BME280;5006;41.828;23.478;2024-02-23T02:06:20;90126.09;;;14.19;51.41
9935;BME280;5006;41.828;23.478;2024-02-23T02:07:26;90125.28;;;13.72;52.95
9935;BME280;5006;41.828;23.478;2024-02-23T02:08:33;90123.97;;;13.84;52.60
9935;BME280;5006;41.828;23.478;2024-02-23T02:09:39;90122.75;;;13.39;53.27
9935;BME280;5006;41.828;23.478;2024-02-23T02:10:46;90122.13;;;13.28;53.64
9935;BME280;5006;41.828;23.478;2024-02-23T02:11:52;90125.06;;;14.32;52.25
9935;BME280;5006;41.828;23.478;2024-02-23T02:13:02;90124.72;;;13.84;51.88
9935;BME280;5006;41.828;23.478;2024-02-23T02:14:09;90135.03;;;14.35;51.68
9935;BME280;5006;41.828;23.478;2024-02-23T02:15:16;90134.28;;;13.39;52.46
9935;BME280;5006;41.828;23.478;2024-02-23T02:16:22;90128.06;;;14.15;52.29
9935;BME280;5006;41.828;23.478;2024-02-23T02:17:29;90126.78;;;14.85;50.85
9935;BME280;5006;41.828;23.478;2024-02-23T02:18:35;90124.75;;;14.50;51.59
9935;BME280;5006;41.828;23.478;2024-02-23T02:19:45;90130.50;;;14.91;50.94
9935;BME280;5006;41.828;23.478;2024-02-23T02:20:54;90135.56;;;14.04;51.69
9935;BME280;5006;41.828;23.478;2024-02-23T02:22:00;90139.84;;;13.78;52.29
9935;BME280;5006;41.828;23.478;2024-02-23T02:23:07;90136.41;;;13.51;52.97
9935;BME280;5006;41.828;23.478;2024-02-23T02:24:13;90138.56;;;13.10;53.29
9935;BME280;5006;41.828;23.478;2024-02-23T02:25:19;90130.69;;;13.72;53.44
9935;BME280;5006;41.828;23.478;2024-02-23T02:26:25;90130.56;;;14.48;51.92
9935;BME280;5006;41.828;23.478;2024-02-23T02:27:30;90126.00;;;14.65;51.07
9935;BME280;5006;41.828;23.478;2024-02-23T02:28:37;90122.69;;;14.96;50.54
9935;BME280;5006;41.828;23.478;2024-02-23T02:29:44;90134.31;;;14.54;51.39
9935;BME280;5006;41.828;23.478;2024-02-23T02:30:49;90125.81;;;13.64;52.51
9935;BME280;5006;41.828;23.478;2024-02-23T02:31:55;90132.91;;;13.28;53.76
9935;BME280;5006;41.828;23.478;2024-02-23T02:33:00;90126.22;;;13.39;53.82
9935;BME280;5006;41.828;23.478;2024-02-23T02:34:07;90128.53;;;13.87;52.40
9935;BME280;5006;41.828;23.478;2024-02-23T02:35:15;90132.81;;;14.30;52.38
9935;BME280;5006;41.828;23.478;2024-02-23T02:36:21;90126.78;;;14.23;51.90
9935;BME280;5006;41.828;23.478;2024-02-23T02:37:29;90122.06;;;14.50;51.66
9935;BME280;5006;41.828;23.478;2024-02-23T02:38:35;90120.44;;;13.64;52.99
9935;BME280;5006;41.828;23.478;2024-02-23T02:39:41;90121.03;;;12.66;54.96
9935;BME280;5006;41.828;23.478;2024-02-23T02:40:47;90116.13;;;12.57;55.36
9935;BME280;5006;41.828;23.478;2024-02-23T02:41:54;90116.66;;;13.35;54.47
9935;BME280;5006;41.828;23.478;2024-02-23T02:43:00;90115.06;;;14.10;53.29
9935;BME280;5006;41.828;23.478;2024-02-23T02:44:05;90116.09;;;14.78;51.55
9935;BME280;5006;41.828;23.478;2024-02-23T02:45:12;90122.13;;;14.85;51.59
9935;BME280;5006;41.828;23.478;2024-02-23T02:46:19;90116.00;;;14.23;52.32
9935;BME280;5006;41.828;23.478;2024-02-23T02:47:24;90118.13;;;13.39;53.70
9935;BME280;5006;41.828;23.478;2024-02-23T02:48:30;90114.56;;;13.46;53.85
9935;BME280;5006;41.828;23.478;2024-02-23T02:49:36;90113.28;;;13.77;53.18
9935;BME280;5006;41.828;23.478;2024-02-23T02:50:42;90107.91;;;14.23;52.28
9935;BME280;5006;41.828;23.478;2024-02-23T02:51:49;90105.03;;;13.64;53.17
9935;BME280;5006;41.828;23.478;2024-02-23T02:52:54;90099.34;;;14.67;52.19
9935;BME280;5006;41.828;23.478;2024-02-23T02:54:00;90107.63;;;13.48;53.06
9935;BME280;5006;41.828;23.478;2024-02-23T02:55:06;90105.94;;;13.31;54.01
9935;BME280;5006;41.828;23.478;2024-02-23T02:56:11;90111.91;;;13.42;54.38
9935;BME280;5006;41.828;23.478;2024-02-23T02:57:18;90103.66;;;13.53;54.22
9935;BME280;5006;41.828;23.478;2024-02-23T02:58:22;90106.78;;;14.63;51.86
9935;BME280;5006;41.828;23.478;2024-02-23T02:59:28;90100.63;;;13.51;52.78
9935;BME280;5006;41.828;23.478;2024-02-23T03:00:34;90106.03;;;13.97;52.71
9935;BME280;5006;41.828;23.478;2024-02-23T03:01:40;90102.25;;;14.17;52.16
9935;BME280;5006;41.828;23.478;2024-02-23T03:02:44;90103.66;;;13.53;52.09
9935;BME280;5006;41.828;23.478;2024-02-23T03:03:51;90097.00;;;13.11;53.82
9935;BME280;5006;41.828;23.478;2024-02-23T03:04:56;90095.91;;;13.81;54.05
9935;BME280;5006;41.828;23.478;2024-02-23T03:06:04;90096.72;;;15.02;51.69
9935;BME280;5006;41.828;23.478;2024-02-23T03:07:11;90095.91;;;14.86;50.80
9935;BME280;5006;41.828;23.478;2024-02-23T03:08:18;90103.69;;;14.22;52.00
9935;BME280;5006;41.828;23.478;2024-02-23T03:09:24;90098.06;;;13.90;52.26
9935;BME280;5006;41.828;23.478;2024-02-23T03:10:31;90107.78;;;13.11;54.72
9935;BME280;5006;41.828;23.478;2024-02-23T03:11:36;90104.53;;;12.93;54.41
9935;BME280;5006;41.828;23.478;2024-02-23T03:12:44;90105.44;;;13.63;53.69
9935;BME280;5006;41.828;23.478;2024-02-23T03:13:50;90104.09;;;14.20;52.28
9935;BME280;5006;41.828;23.478;2024-02-23T03:14:56;90100.72;;;14.94;50.74
9935;BME280;5006;41.828;23.478;2024-02-23T03:16:01;90099.63;;;14.33;51.23
9935;BME280;5006;41.828;23.478;2024-02-23T03:17:08;90096.88;;;14.14;52.07
9935;BME280;5006;41.828;23.478;2024-02-23T03:18:14;90105.97;;;14.00;52.45
9935;BME280;5006;41.828;23.478;2024-02-23T03:19:21;90101.03;;;13.95;52.10
9935;BME280;5006;41.828;23.478;2024-02-23T03:20:28;90103.34;;;13.97;51.89
9935;BME280;5006;41.828;23.478;2024-02-23T03:21:36;90104.84;;;13.52;53.21
9935;BME280;5006;41.828;23.478;2024-02-23T03:22:42;90107.06;;;13.34;53.96
9935;BME280;5006;41.828;23.478;2024-02-23T03:23:48;90102.00;;;13.36;53.73
9935;BME280;5006;41.828;23.478;2024-02-23T03:24:52;90102.63;;;13.47;53.60
9935;BME280;5006;41.828;23.478;2024-02-23T03:25:58;90096.94;;;13.41;53.82
9935;BME280;5006;41.828;23.478;2024-02-23T03:27:04;90092.66;;;13.44;53.68
9935;BME280;5006;41.828;23.478;2024-02-23T03:28:10;90097.53;;;13.26;54.23
9935;BME280;5006;41.828;23.478;2024-02-23T03:29:15;90097.13;;;13.01;54.08
9935;BME280;5006;41.828;23.478;2024-02-23T03:30:22;90092.19;;;13.49;52.83
9935;BME280;5006;41.828;23.478;2024-02-23T03:31:26;90091.84;;;12.94;53.70
9935;BME280;5006;41.828;23.478;2024-02-23T03:32:34;90093.91;;;12.53;53.62
9935;BME280;5006;41.828;23.478;2024-02-23T03:33:41;90092.09;;;12.43;54.52
9935;BME280;5006;41.828;23.478;2024-02-23T03:34:48;90097.41;;;12.80;54.75
9935;BME280;5006;41.828;23.478;2024-02-23T03:35:54;90097.66;;;13.19;54.26
9935;BME280;5006;41.828;23.478;2024-02-23T03:37:03;90097.72;;;12.86;54.47
9935;BME280;5006;41.828;23.478;2024-02-23T03:38:08;90102.03;;;12.76;55.26
9935;BME280;5006;41.828;23.478;2024-02-23T03:39:15;90091.81;;;12.34;55.12
9935;BME280;5006;41.828;23.478;2024-02-23T03:40:21;90098.00;;;12.31;55.86
9935;BME280;5006;41.828;23.478;2024-02-23T03:41:27;90093.53;;;12.18;56.54
9935;BME280;5006;41.828;23.478;2024-02-23T03:42:32;90095.91;;;12.46;56.04
9935;BME280;5006;41.828;23.478;2024-02-23T03:43:39;90094.28;;;12.22;55.49
9935;BME280;5006;41.828;23.478;2024-02-23T03:44:45;90096.22;;;13.11;55.09
9935;BME280;5006;41.828;23.478;2024-02-23T03:45:51;90093.91;;;12.83;55.23
9935;BME280;5006;41.828;23.478;2024-02-23T03:46:56;90093.63;;;13.30;54.33
9935;BME280;5006;41.828;23.478;2024-02-23T03:48:03;90089.72;;;13.08;54.24
9935;BME280;5006;41.828;23.478;2024-02-23T03:49:08;90094.78;;;12.73;55.25
9935;BME280;5006;41.828;23.478;2024-02-23T03:50:14;90084.38;;;12.75;55.68
9935;BME280;5006;41.828;23.478;2024-02-23T03:51:20;90090.13;;;12.47;55.69
9935;BME280;5006;41.828;23.478;2024-02-23T03:52:28;90085.28;;;13.21;54.66
9935;BME280;5006;41.828;23.478;2024-02-23T03:53:34;90085.28;;;13.48;53.16
9935;BME280;5006;41.828;23.478;2024-02-23T03:54:42;90082.34;;;13.39;53.00
9935;BME280;5006;41.828;23.478;2024-02-23T03:55:48;90091.94;;;13.40;53.18
9935;BME280;5006;41.828;23.478;2024-02-23T03:56:54;90096.19;;;13.64;53.41
9935;BME280;5006;41.828;23.478;2024-02-23T03:58:00;90099.28;;;12.83;54.25
9935;BME280;5006;41.828;23.478;2024-02-23T03:59:06;90098.56;;;13.09;54.28
9935;BME280;5006;41.828;23.478;2024-02-23T04:00:15;90096.84;;;12.92;54.85
9935;BME280;5006;41.828;23.478;2024-02-23T04:01:21;90096.91;;;12.88;54.77
9935;BME280;5006;41.828;23.478;2024-02-23T04:02:26;90104.38;;;12.74;54.79
9935;BME280;5006;41.828;23.478;2024-02-23T04:03:31;90102.47;;;12.75;54.74
9935;BME280;5006;41.828;23.478;2024-02-23T04:04:38;90102.47;;;13.04;54.52
9935;BME280;5006;41.828;23.478;2024-02-23T04:05:43;90100.78;;;13.14;54.04
9935;BME280;5006;41.828;23.478;2024-02-23T04:06:48;90103.06;;;12.26;56.20
9935;BME280;5006;41.828;23.478;2024-02-23T04:07:55;90099.31;;;11.79;56.67
9935;BME280;5006;41.828;23.478;2024-02-23T04:09:02;90103.44;;;11.87;56.79
9935;BME280;5006;41.828;23.478;2024-02-23T04:10:10;90096.00;;;12.69;55.70
9935;BME280;5006;41.828;23.478;2024-02-23T04:11:21;90099.09;;;12.67;54.74
9935;BME280;5006;41.828;23.478;2024-02-23T04:12:26;90099.59;;;12.88;55.48
9935;BME280;5006;41.828;23.478;2024-02-23T04:13:32;90103.69;;;13.26;53.86
9935;BME280;5006;41.828;23.478;2024-02-23T04:14:38;90107.53;;;12.39;55.72
9935;BME280;5006;41.828;23.478;2024-02-23T04:15:45;90103.97;;;11.75;57.10
9935;BME280;5006;41.828;23.478;2024-02-23T04:16:50;90106.88;;;12.28;56.78
9935;BME280;5006;41.828;23.478;2024-02-23T04:17:56;90105.81;;;12.82;56.12
9935;BME280;5006;41.828;23.478;2024-02-23T04:19:02;90105.88;;;13.35;54.55
9935;BME280;5006;41.828;23.478;2024-02-23T04:20:08;90107.00;;;13.11;54.47
9935;BME280;5006;41.828;23.478;2024-02-23T04:21:15;90100.91;;;12.77;54.37
9935;BME280;5006;41.828;23.478;2024-02-23T04:22:19;90107.44;;;12.76;55.44
9935;BME280;5006;41.828;23.478;2024-02-23T04:23:27;90104.69;;;12.50;55.86
9935;BME280;5006;41.828;23.478;2024-02-23T04:24:33;90105.28;;;12.64;55.84
9935;BME280;5006;41.828;23.478;2024-02-23T04:25:38;90104.41;;;12.41;55.35
9935;BME280;5006;41.828;23.478;2024-02-23T04:26:43;90102.13;;;12.73;55.37
9935;BME280;5006;41.828;23.478;2024-02-23T04:27:49;90099.47;;;12.69;55.68
9935;BME280;5006;41.828;23.478;2024-02-23T04:28:55;90106.38;;;13.53;53.45
9935;BME280;5006;41.828;23.478;2024-02-23T04:29:59;90101.03;;;13.95;52.36
9935;BME280;5006;41.828;23.478;2024-02-23T04:31:06;90093.63;;;13.57;53.17
9935;BME280;5006;41.828;23.478;2024-02-23T04:32:30;90101.44;;;13.21;53.55
9935;BME280;5006;41.828;23.478;2024-02-23T04:33:36;90099.72;;;13.34;52.90
9935;BME280;5006;41.828;23.478;2024-02-23T04:34:42;90092.22;;;13.72;52.77
9935;BME280;5006;41.828;23.478;2024-02-23T04:35:47;90100.97;;;13.53;52.39
9935;BME280;5006;41.828;23.478;2024-02-23T04:36:53;90100.59;;;13.77;52.30
9935;BME280;5006;41.828;23.478;2024-02-23T04:38:00;90098.06;;;13.44;53.05
9935;BME280;5006;41.828;23.478;2024-02-23T04:39:06;90110.25;;;12.66;54.14
9935;BME280;5006;41.828;23.478;2024-02-23T04:40:13;90105.56;;;11.66;56.60
9935;BME280;5006;41.828;23.478;2024-02-23T04:41:20;90100.25;;;11.55;57.51
9935;BME280;5006;41.828;23.478;2024-02-23T04:42:27;90098.97;;;12.14;57.62
9935;BME280;5006;41.828;23.478;2024-02-23T04:43:33;90091.81;;;12.64;56.01
9935;BME280;5006;41.828;23.478;2024-02-23T04:44:40;90104.38;;;12.74;55.01
9935;BME280;5006;41.828;23.478;2024-02-23T04:45:46;90109.22;;;12.86;54.38
9935;BME280;5006;41.828;23.478;2024-02-23T04:46:53;90100.16;;;12.10;55.71
9935;BME280;5006;41.828;23.478;2024-02-23T04:47:57;90105.38;;;12.57;55.46
9935;BME280;5006;41.828;23.478;2024-02-23T04:49:04;90100.75;;;12.58;54.73
9935;BME280;5006;41.828;23.478;2024-02-23T04:50:10;90104.91;;;12.32;55.55
9935;BME280;5006;41.828;23.478;2024-02-23T04:51:15;90107.44;;;12.09;55.39
9935;BME280;5006;41.828;23.478;2024-02-23T04:52:21;90101.81;;;12.97;55.08
9935;BME280;5006;41.828;23.478;2024-02-23T04:53:27;90111.63;;;13.10;54.25
9935;BME280;5006;41.828;23.478;2024-02-23T04:54:34;90110.53;;;13.04;54.68
9935;BME280;5006;41.828;23.478;2024-02-23T04:55:41;90107.00;;;13.37;54.17
9935;BME280;5006;41.828;23.478;2024-02-23T04:56:47;90110.59;;;13.01;54.03
9935;BME280;5006;41.828;23.478;2024-02-23T04:57:54;90108.41;;;13.45;53.61
9935;BME280;5006;41.828;23.478;2024-02-23T04:59:01;90104.63;;;13.16;53.07
9935;BME280;5006;41.828;23.478;2024-02-23T05:00:08;90115.97;;;12.71;53.22
9935;BME280;5006;41.828;23.478;2024-02-23T05:01:15;90113.53;;;12.80;53.63
9935;BME280;5006;41.828;23.478;2024-02-23T05:02:22;90120.69;;;13.23;53.48
9935;BME280;5006;41.828;23.478;2024-02-23T05:03:28;90125.41;;;13.16;54.17
9935;BME280;5006;41.828;23.478;2024-02-23T05:04:34;90119.41;;;13.05;53.87
9935;BME280;5006;41.828;23.478;2024-02-23T05:05:39;90119.50;;;12.31;55.07
9935;BME280;5006;41.828;23.478;2024-02-23T05:06:45;90112.56;;;12.97;54.34
9935;BME280;5006;41.828;23.478;2024-02-23T05:07:50;90114.72;;;13.09;53.42
9935;BME280;5006;41.828;23.478;2024-02-23T05:08:57;90115.94;;;13.31;53.85
9935;BME280;5006;41.828;23.478;2024-02-23T05:10:05;90122.19;;;13.24;52.98
9935;BME280;5006;41.828;23.478;2024-02-23T05:11:14;90124.72;;;13.35;53.75
9935;BME280;5006;41.828;23.478;2024-02-23T05:12:20;90128.03;;;13.46;54.01
9935;BME280;5006;41.828;23.478;2024-02-23T05:13:26;90122.53;;;13.53;53.64
9935;BME280;5006;41.828;23.478;2024-02-23T05:14:31;90125.09;;;13.37;52.62
9935;BME280;5006;41.828;23.478;2024-02-23T05:15:36;90122.69;;;13.42;52.76
9935;BME280;5006;41.828;23.478;2024-02-23T05:16:42;90118.94;;;13.36;53.44
9935;BME280;5006;41.828;23.478;2024-02-23T05:17:48;90129.75;;;13.06;52.99
9935;BME280;5006;41.828;23.478;2024-02-23T05:18:54;90134.34;;;12.76;54.08
9935;BME280;5006;41.828;23.478;2024-02-23T05:20:18;90133.88;;;13.14;54.79
9935;BME280;5006;41.828;23.478;2024-02-23T05:21:25;90133.72;;;13.25;54.29
9935;BME280;5006;41.828;23.478;2024-02-23T05:22:30;90133.22;;;13.07;53.73
9935;BME280;5006;41.828;23.478;2024-02-23T05:23:38;90133.41;;;13.46;53.74
9935;BME280;5006;41.828;23.478;2024-02-23T05:24:43;90128.78;;;13.46;52.93
9935;BME280;5006;41.828;23.478;2024-02-23T05:25:51;90132.50;;;13.29;53.14
9935;BME280;5006;41.828;23.478;2024-02-23T05:26:57;90128.75;;;13.23;52.75
9935;BME280;5006;41.828;23.478;2024-02-23T05:28:03;90125.88;;;13.07;53.51
9935;BME280;5006;41.828;23.478;2024-02-23T05:29:10;90125.69;;;13.48;53.68
9935;BME280;5006;41.828;23.478;2024-02-23T05:30:17;90118.38;;;13.22;53.76
9935;BME280;5006;41.828;23.478;2024-02-23T05:31:44;90120.16;;;13.05;54.11
9935;BME280;5006;41.828;23.478;2024-02-23T05:32:50;90130.75;;;12.86;54.29
9935;BME280;5006;41.828;23.478;2024-02-23T05:33:57;90127.63;;;12.91;54.34
9935;BME280;5006;41.828;23.478;2024-02-23T05:35:02;90137.81;;;13.36;53.51
9935;BME280;5006;41.828;23.478;2024-02-23T05:36:09;90145.69;;;13.20;53.88
9935;BME280;5006;41.828;23.478;2024-02-23T05:37:14;90142.19;;;13.50;54.46
9935;BME280;5006;41.828;23.478;2024-02-23T05:38:21;90149.00;;;13.31;54.04
9935;BME280;5006;41.828;23.478;2024-02-23T05:39:27;90148.09;;;13.15;54.43
9935;BME280;5006;41.828;23.478;2024-02-23T05:40:33;90146.25;;;12.75;56.23
9935;BME280;5006;41.828;23.478;2024-02-23T05:41:40;90143.16;;;12.80;56.19
9935;BME280;5006;41.828;23.478;2024-02-23T05:42:47;90144.50;;;13.25;55.88
9935;BME280;5006;41.828;23.478;2024-02-23T05:43:52;90139.53;;;13.23;54.31
9935;BME280;5006;41.828;23.478;2024-02-23T05:44:59;90131.78;;;12.99;55.02
9935;BME280;5006;41.828;23.478;2024-02-23T05:46:05;90129.06;;;12.99;54.95
9935;BME280;5006;41.828;23.478;2024-02-23T05:47:12;90131.22;;;12.81;55.13
9935;BME280;5006;41.828;23.478;2024-02-23T05:48:19;90132.84;;;13.05;54.13
9935;BME280;5006;41.828;23.478;2024-02-23T05:49:26;90136.44;;;12.95;54.38
9935;BME280;5006;41.828;23.478;2024-02-23T05:50:32;90135.97;;;13.00;55.07
9935;BME280;5006;41.828;23.478;2024-02-23T05:51:39;90140.44;;;13.13;54.95
9935;BME280;5006;41.828;23.478;2024-02-23T05:52:45;90134.03;;;13.57;55.17
9935;BME280;5006;41.828;23.478;2024-02-23T05:53:50;90141.38;;;13.79;55.01
9935;BME280;5006;41.828;23.478;2024-02-23T05:54:56;90145.50;;;13.61;54.54
9935;BME280;5006;41.828;23.478;2024-02-23T05:56:02;90140.06;;;13.38;55.08